Time;durP1;ratioP1;P1;durP2;ratioP2;P2;SDS_P1;SDS_P2;PMS_P1;PMS_P2;Temp;Humidity;BMP_temperature;BMP_pressure;BME280_temperature;BME280_humidity;BME280_pressure;Samples;Min_cycle;Max_cycle;Signal;HPM_P1;HPM_P2
2022/12/20 00:01:30;;;;;;;;;;;;;;;;;;;;;
2022/12/20 00:04:15;;;;;;;25.00;13.68;;;8.80;99.90;;;;;;4844985;29;20033;-93
2022/12/20 00:10:23;;;;;;;24.80;15.52;;;8.60;99.90;;;;;;4774647;29;20164;-92
2022/12/20 00:12:52;;;;;;;22.95;13.68;;;8.60;99.90;;;;;;4772730;30;20043;-93
2022/12/20 00:15:19;;;;;;;28.95;15.35;;;8.50;99.90;;;;;;4773431;30;20068;-92
2022/12/20 00:18:22;;;;;;;21.30;14.77;;;8.50;99.90;;;;;;4754551;29;20092;-92
2022/12/20 00:20:59;;;;;;;26.40;15.93;;;8.50;99.90;;;;;;4772988;30;20076;-92
2022/12/20 00:23:25;;;;;;;35.03;17.95;;;8.40;99.90;;;;;;4772723;30;20506;-93
2022/12/20 00:25:52;;;;;;;29.70;17.20;;;8.30;99.90;;;;;;4773074;30;20489;-92
2022/12/20 00:28:18;;;;;;;34.35;18.40;;;8.30;99.90;;;;;;4772682;30;20039;-93
2022/12/20 00:30:45;;;;;;;36.20;19.80;;;8.20;99.90;;;;;;4772714;30;20043;-94
2022/12/20 00:33:12;;;;;;;37.17;18.95;;;8.20;99.90;;;;;;4772886;30;20035;-95
2022/12/20 00:35:42;;;;;;;39.75;20.13;;;8.20;99.90;;;;;;4773593;30;20138;-92
2022/12/20 00:38:08;;;;;;;36.05;20.38;;;8.10;99.90;;;;;;4773007;30;20035;-94
2022/12/20 00:40:38;;;;;;;38.35;20.27;;;8.00;99.90;;;;;;4786801;29;20509;-94
2022/12/20 00:43:32;;;;;;;40.28;20.58;;;8.00;99.90;;;;;;4813031;29;20097;-94
2022/12/20 00:46:27;;;;;;;;;;;;;;;;;;;;;
2022/12/20 00:49:33;;;;;;;49.20;20.40;;;8.00;99.90;;;;;;4826345;29;20069;-94
2022/12/20 00:52:14;;;;;;;39.20;22.75;;;8.00;99.90;;;;;;4811935;29;20039;-93
2022/12/20 00:55:13;;;;;;;32.90;19.88;;;7.90;99.90;;;;;;4770862;30;20046;-93
2022/12/20 00:57:43;;;;;;;35.95;20.10;;;7.90;99.90;;;;;;4770292;30;20036;-94
2022/12/20 01:00:20;;;;;;;35.72;21.25;;;7.90;99.90;;;;;;4770380;30;20041;-95
2022/12/20 01:02:49;;;;;;;40.50;21.27;;;7.90;99.90;;;;;;4769981;30;20085;-94
2022/12/20 01:05:38;;;;;;;43.35;23.35;;;7.90;99.90;;;;;;4768458;30;20040;-94
2022/12/20 01:08:14;;;;;;;45.80;24.30;;;7.80;99.90;;;;;;4770144;30;20035;-95
2022/12/20 01:11:07;;;;;;;;;;;;;;;;;;;;;
2022/12/20 01:13:40;;;;;;;39.08;22.75;;;7.70;99.90;;;;;;4771476;30;20040;-95
2022/12/20 01:16:16;;;;;;;47.35;25.00;;;7.70;99.90;;;;;;4769503;30;20044;-94
2022/12/20 01:18:52;;;;;;;41.92;25.40;;;7.70;99.90;;;;;;4769724;30;20070;-95
2022/12/20 01:21:22;;;;;;;48.00;25.98;;;7.70;99.90;;;;;;4769505;30;20050;-93
2022/12/20 01:23:49;;;;;;;45.20;25.60;;;7.70;99.90;;;;;;4770116;30;20118;-94
2022/12/20 01:26:21;;;;;;;51.42;26.27;;;7.70;99.90;;;;;;4772975;29;20044;-93
2022/12/20 01:28:54;;;;;;;49.42;25.65;;;7.60;99.90;;;;;;4772881;30;20051;-94
2022/12/20 01:31:22;;;;;;;46.15;25.88;;;7.60;99.90;;;;;;4783422;29;20047;-94
2022/12/20 01:33:51;;;;;;;50.28;26.35;;;7.60;99.90;;;;;;4812606;29;20030;-95
2022/12/20 01:36:36;;;;;;;42.80;25.75;;;7.60;99.90;;;;;;4812681;29;20038;-94
2022/12/20 01:39:18;;;;;;;51.50;27.85;;;7.50;99.90;;;;;;4828261;29;20043;-93
2022/12/20 01:41:45;;;;;;;46.08;24.98;;;7.50;99.90;;;;;;4827622;29;20038;-92
2022/12/20 01:44:17;;;;;;;47.60;26.50;;;7.50;99.90;;;;;;4812832;29;20034;-93
2022/12/20 01:46:46;;;;;;;46.75;25.55;;;7.50;99.90;;;;;;4827496;29;20099;-95
2022/12/20 01:49:33;;;;;;;45.88;26.63;;;7.50;99.90;;;;;;4812104;29;20390;-92
2022/12/20 01:52:32;;;;;;;46.60;26.05;;;7.50;99.90;;;;;;4812986;29;20038;-95
2022/12/20 01:55:23;;;;;;;51.50;27.77;;;7.40;99.90;;;;;;4807685;29;20125;-93
2022/12/20 01:58:15;;;;;;;64.78;28.17;;;7.40;99.90;;;;;;4814029;29;20030;-94
2022/12/20 02:00:49;;;;;;;46.13;25.30;;;7.40;99.90;;;;;;4817327;29;20053;-93
2022/12/20 02:03:22;;;;;;;50.97;26.73;;;7.40;99.90;;;;;;4812733;29;20495;-94
2022/12/20 02:05:52;;;;;;;51.22;26.27;;;7.40;99.90;;;;;;4827182;29;20459;-94
2022/12/20 02:08:19;;;;;;;44.50;25.05;;;7.40;99.90;;;;;;4812855;29;20083;-94
2022/12/20 02:10:59;;;;;;;50.55;25.77;;;7.50;99.90;;;;;;4827072;29;20480;-93
2022/12/20 02:13:56;;;;;;;43.83;25.05;;;7.40;99.90;;;;;;4812221;29;20038;-94
2022/12/20 02:16:28;;;;;;;46.67;23.58;;;7.50;99.90;;;;;;4782683;29;20046;-93
2022/12/20 02:19:14;;;;;;;47.45;22.92;;;7.50;99.90;;;;;;4812728;29;20042;-94
2022/12/20 02:21:47;;;;;;;43.90;25.15;;;7.50;99.90;;;;;;4826919;29;20462;-94
2022/12/20 02:24:46;;;;;;;45.63;23.42;;;7.60;99.90;;;;;;4812140;29;20045;-94
2022/12/20 02:27:32;;;;;;;43.80;23.40;;;7.60;99.90;;;;;;4813672;29;20031;-93
2022/12/20 02:30:15;;;;;;;41.13;21.95;;;7.50;99.90;;;;;;4827606;29;20042;-95
2022/12/20 02:33:07;;;;;;;42.40;22.97;;;7.60;99.90;;;;;;4826881;29;20098;-94
2022/12/20 02:35:47;;;;;;;47.10;23.33;;;7.60;99.90;;;;;;4825745;29;20042;-94
2022/12/20 02:38:30;;;;;;;41.85;23.45;;;7.60;99.90;;;;;;4811992;29;20050;-93
2022/12/20 02:41:10;;;;;;;40.63;21.58;;;7.60;99.90;;;;;;4826508;29;20450;-93
2022/12/20 02:46:32;;;;;;;40.83;21.75;;;7.50;99.90;;;;;;4826015;29;20055;-94
2022/12/20 02:49:04;;;;;;;39.35;21.63;;;7.50;99.90;;;;;;4826785;29;20054;-95
2022/12/20 02:51:34;;;;;;;40.80;21.33;;;7.50;99.90;;;;;;4812258;29;20081;-94
2022/12/20 02:54:19;;;;;;;42.10;20.88;;;7.40;99.90;;;;;;4826394;29;20503;-95
2022/12/20 02:56:55;;;;;;;39.20;21.08;;;7.40;99.90;;;;;;4812240;29;20083;-93
2022/12/20 02:59:37;;;;;;;39.95;21.50;;;7.40;99.90;;;;;;4811653;29;20035;-93
2022/12/20 03:02:10;;;;;;;41.30;21.50;;;7.40;99.90;;;;;;4825735;29;20038;-94
2022/12/20 03:04:39;;;;;;;36.67;20.85;;;7.40;99.90;;;;;;4826833;29;20053;-95
2022/12/20 03:07:12;;;;;;;45.80;22.17;;;7.40;99.90;;;;;;4810954;29;20034;-94
2022/12/20 03:09:57;;;;;;;43.63;22.83;;;7.40;99.90;;;;;;4810887;29;20070;-93
2022/12/20 03:12:24;;;;;;;46.33;21.60;;;7.40;99.90;;;;;;4810993;29;20107;-94
2022/12/20 03:14:51;;;;;;;50.22;22.85;;;7.40;99.90;;;;;;4810787;29;20026;-93
2022/12/20 03:17:18;;;;;;;40.35;21.52;;;7.40;99.90;;;;;;4826047;29;20038;-93
2022/12/20 03:19:45;;;;;;;46.22;21.65;;;7.40;99.90;;;;;;4811124;29;20030;-93
2022/12/20 03:22:22;;;;;;;47.22;22.30;;;7.40;99.90;;;;;;4825885;29;20050;-93
2022/12/20 03:24:49;;;;;;;39.10;19.63;;;7.40;99.90;;;;;;4825619;29;20042;-95
2022/12/20 03:27:17;;;;;;;35.22;20.35;;;7.40;99.90;;;;;;4810674;29;20481;-94
2022/12/20 03:29:50;;;;;;;37.47;21.17;;;7.40;99.90;;;;;;4811019;29;20058;-92
2022/12/20 03:32:20;;;;;;;34.55;20.02;;;7.40;99.90;;;;;;4811307;29;20030;-93
2022/12/20 03:34:47;;;;;;;39.40;20.05;;;7.40;99.90;;;;;;4810231;29;20129;-94
2022/12/20 03:37:28;;;;;;;;;;;;;;;;;;;;;
2022/12/20 03:39:58;;;;;;;36.67;18.63;;;7.40;99.90;;;;;;4826511;29;20046;-94
2022/12/20 03:42:27;;;;;;;34.38;19.33;;;7.40;99.90;;;;;;4810445;29;20041;-94
2022/12/20 03:44:58;;;;;;;37.90;18.75;;;7.50;99.90;;;;;;4824985;29;20083;-94
2022/12/20 03:47:27;;;;;;;32.70;18.15;;;7.50;99.90;;;;;;4810002;29;20046;-94
2022/12/20 03:49:55;;;;;;;34.85;18.30;;;7.50;99.90;;;;;;4809729;29;20053;-93
2022/12/20 03:52:35;;;;;;;32.55;18.77;;;7.60;99.90;;;;;;4809456;29;20027;-94
2022/12/20 03:55:08;;;;;;;33.50;17.60;;;7.60;99.90;;;;;;4809710;29;20057;-94
2022/12/20 03:57:50;;;;;;;28.63;16.58;;;7.60;99.90;;;;;;4809602;29;20042;-94
2022/12/20 04:00:36;;;;;;;34.92;16.85;;;7.60;99.90;;;;;;4794350;29;20205;-93
2022/12/20 04:03:26;;;;;;;32.20;16.52;;;7.60;99.90;;;;;;4811985;29;20034;-94
2022/12/20 04:05:54;;;;;;;28.95;16.70;;;7.60;99.90;;;;;;4810956;29;20050;-94
2022/12/20 04:08:52;;;;;;;33.25;16.52;;;7.60;99.90;;;;;;4810683;29;20098;-95
2022/12/20 04:14:21;;;;;;;37.28;19.63;;;7.60;99.90;;;;;;4825366;29;20086;-93
2022/12/20 04:16:49;;;;;;;32.30;18.15;;;7.60;99.90;;;;;;4810238;29;20039;-94
2022/12/20 04:19:26;;;;;;;33.88;17.25;;;7.60;99.90;;;;;;4809866;29;20026;-92
2022/12/20 04:21:54;;;;;;;35.53;17.37;;;7.50;99.90;;;;;;4807005;29;20037;-93
2022/12/20 04:24:21;;;;;;;33.42;16.70;;;7.50;99.90;;;;;;4776811;29;20027;-92
2022/12/20 04:27:13;;;;;;;27.25;15.57;;;7.50;99.90;;;;;;4795264;29;20035;-93
2022/12/20 04:29:40;;;;;;;29.55;16.23;;;7.50;99.90;;;;;;4791580;29;20066;-94
2022/12/20 04:32:17;;;;;;;30.70;15.90;;;7.50;99.90;;;;;;4776894;29;20184;-92
2022/12/20 04:34:44;;;;;;;29.37;16.60;;;7.50;99.90;;;;;;4791362;29;20035;-95
2022/12/20 04:37:11;;;;;;;30.08;16.40;;;7.40;99.90;;;;;;4776627;29;20027;-94
2022/12/20 04:39:48;;;;;;;33.63;16.77;;;7.40;99.90;;;;;;4792472;29;20031;-95
2022/12/20 04:42:21;;;;;;;29.60;16.45;;;7.40;99.90;;;;;;4776989;29;20035;-93
2022/12/20 04:44:49;;;;;;;33.50;16.92;;;7.40;99.90;;;;;;4791763;29;20043;-95
2022/12/20 04:47:21;;;;;;;31.10;16.88;;;7.30;99.90;;;;;;4777226;29;20030;-94
2022/12/20 04:49:48;;;;;;;34.25;17.75;;;7.30;99.90;;;;;;4791007;29;20129;-93
2022/12/20 04:55:00;;;;;;;36.42;18.10;;;7.30;99.90;;;;;;4806211;29;20073;-94
2022/12/20 04:57:31;;;;;;;37.75;18.17;;;7.20;99.90;;;;;;4776932;29;20121;-94
2022/12/20 04:59:59;;;;;;;30.35;17.92;;;7.20;99.90;;;;;;4776145;29;20035;-93
2022/12/20 05:02:25;;;;;;;28.95;15.50;;;7.20;99.90;;;;;;4775985;29;20122;-91
2022/12/20 05:05:00;;;;;;;31.17;15.73;;;7.20;99.90;;;;;;4776870;29;20130;-93
2022/12/20 05:07:29;;;;;;;34.58;17.02;;;7.20;99.90;;;;;;4776453;29;20035;-94
2022/12/20 05:09:56;;;;;;;34.22;17.38;;;7.20;99.90;;;;;;4776303;29;20418;-92
2022/12/20 05:12:25;;;;;;;29.42;15.85;;;7.20;99.90;;;;;;4790821;29;20062;-93
2022/12/20 05:14:56;;;;;;;32.17;16.60;;;7.20;99.90;;;;;;4791006;29;20512;-93
2022/12/20 05:17:26;;;;;;;31.05;17.42;;;7.20;99.90;;;;;;4791100;29;20035;-93
2022/12/20 05:19:56;;;;;;;30.80;17.00;;;7.20;99.90;;;;;;4791171;29;20498;-94
2022/12/20 05:28:08;;;;;;;30.08;16.55;;;7.20;99.90;;;;;;4806019;29;20042;-94
2022/12/20 05:30:48;;;;;;;32.72;16.73;;;7.20;99.90;;;;;;4791929;29;20043;-95
2022/12/20 05:33:49;;;;;;;34.47;17.38;;;7.20;99.90;;;;;;4791233;29;20432;-93
2022/12/20 05:36:25;;;;;;;32.08;17.50;;;7.20;99.90;;;;;;4791624;29;20126;-94
2022/12/20 05:38:59;;;;;;;26.85;16.10;;;7.10;99.90;;;;;;4776396;29;20039;-92
2022/12/20 05:41:26;;;;;;;33.97;17.80;;;7.20;99.90;;;;;;4791549;29;20481;-95
2022/12/20 05:43:53;;;;;;;33.92;18.02;;;7.10;99.90;;;;;;4776280;29;20031;-93
2022/12/20 05:46:20;;;;;;;35.83;17.65;;;7.10;99.90;;;;;;4791160;29;20031;-92
2022/12/20 05:49:10;;;;;;;29.63;17.13;;;7.10;99.90;;;;;;4775069;30;20473;-94
2022/12/20 05:51:37;;;;;;;35.28;18.33;;;7.10;99.90;;;;;;4786874;29;20035;-94
2022/12/20 05:54:20;;;;;;;38.80;18.23;;;7.10;99.90;;;;;;4784916;30;20044;-94
2022/12/20 05:56:56;;;;;;;45.60;19.88;;;7.10;99.90;;;;;;4786054;29;20043;-94
2022/12/20 05:59:32;;;;;;;47.75;18.42;;;7.10;99.90;;;;;;4785838;30;20043;-94
2022/12/20 06:02:04;;;;;;;40.03;18.15;;;7.20;99.90;;;;;;4787332;30;20533;-92
2022/12/20 06:04:33;;;;;;;51.53;19.38;;;7.10;99.90;;;;;;4788115;29;20130;-94
2022/12/20 06:07:05;;;;;;;49.67;19.35;;;7.20;99.90;;;;;;4786905;30;20045;-92
2022/12/20 06:09:35;;;;;;;39.92;17.92;;;7.10;99.90;;;;;;4771821;30;20056;-94
2022/12/20 06:12:07;;;;;;;37.72;18.25;;;7.20;99.90;;;;;;4785571;29;20066;-94
2022/12/20 06:14:35;;;;;;;47.90;19.58;;;7.20;99.90;;;;;;4742775;30;20040;-94
2022/12/20 06:17:02;;;;;;;46.08;19.48;;;7.20;99.90;;;;;;4742715;30;20031;-93
2022/12/20 06:19:30;;;;;;;44.78;19.65;;;7.20;99.90;;;;;;4750793;30;20085;-92
2022/12/20 12:33:20;;;;;;;17.17;15.77;;;14.50;99.90;;;;;;5660058;23;20054;-94
2022/12/20 12:36:04;;;;;;;17.50;16.35;;;14.40;99.90;;;;;;4813710;29;20034;-94
2022/12/20 12:38:48;;;;;;;17.23;15.75;;;14.10;99.90;;;;;;4815719;29;20511;-94
2022/12/20 12:41:35;;;;;;;17.67;16.47;;;14.00;99.90;;;;;;4816508;29;20072;-95
2022/12/20 12:44:23;;;;;;;17.48;16.15;;;14.10;99.90;;;;;;4810303;29;20502;-94
2022/12/20 12:47:01;;;;;;;17.42;15.98;;;14.20;99.90;;;;;;4810449;29;20038;-94
2022/12/20 12:49:31;;;;;;;16.50;15.43;;;14.30;99.90;;;;;;4809811;29;20046;-94
2022/12/20 12:52:02;;;;;;;16.33;15.23;;;14.30;99.90;;;;;;4810386;29;20061;-96
2022/12/20 12:54:36;;;;;;;16.95;15.63;;;14.50;99.90;;;;;;4813657;29;20038;-93
2022/12/20 12:57:15;;;;;;;16.67;15.63;;;14.60;99.90;;;;;;4835378;24;20069;-96
2022/12/20 12:59:47;;;;;;;16.45;15.23;;;14.40;99.90;;;;;;4830233;29;20132;-94
2022/12/20 13:02:34;;;;;;;16.83;15.50;;;14.10;99.90;;;;;;4858570;23;20430;-94
2022/12/20 13:05:11;;;;;;;20.40;18.50;;;13.90;99.90;;;;;;4792494;29;20055;-93
2022/12/20 13:07:45;;;;;;;17.90;16.52;;;13.90;99.90;;;;;;4791479;29;20042;-94
2022/12/20 13:10:28;;;;;;;;;;;;;;;;;;;;;
2022/12/20 13:13:00;;;;;;;17.15;16.00;;;14.10;99.90;;;;;;4807498;29;20489;-94
2022/12/20 13:15:28;;;;;;;17.60;16.40;;;14.00;99.90;;;;;;4791395;29;20037;-94
2022/12/20 13:18:36;;;;;;;17.17;15.88;;;14.10;99.90;;;;;;4791897;29;20027;-94
2022/12/20 13:21:35;;;;;;;18.10;16.85;;;14.20;99.90;;;;;;4788140;29;20408;-95
2022/12/20 13:24:45;;;;;;;18.25;16.67;;;14.10;99.90;;;;;;4805023;29;20043;-95
2022/12/20 13:27:28;;;;;;;17.30;15.98;;;14.00;99.90;;;;;;4797730;29;20031;-94
2022/12/20 13:30:09;;;;;;;17.75;16.45;;;14.00;99.90;;;;;;4794871;29;20054;-93
2022/12/20 13:32:54;;;;;;;18.33;17.05;;;13.80;99.90;;;;;;4795895;29;20027;-94
2022/12/20 13:35:24;;;;;;;18.33;16.75;;;13.90;99.90;;;;;;4794583;29;20038;-94
2022/12/20 13:37:55;;;;;;;18.38;16.85;;;14.00;99.90;;;;;;4794725;29;20370;-93
2022/12/20 13:40:34;;;;;;;18.35;16.83;;;14.10;99.90;;;;;;4794605;29;20038;-94
2022/12/20 13:43:16;;;;;;;18.00;16.73;;;14.10;99.90;;;;;;4794598;29;20035;-94
2022/12/20 13:45:50;;;;;;;16.92;15.73;;;14.10;99.90;;;;;;4795546;29;20034;-93
2022/12/20 13:48:26;;;;;;;18.17;16.67;;;14.00;99.90;;;;;;4794832;29;20072;-95
2022/12/20 13:50:54;;;;;;;18.23;16.58;;;14.00;99.90;;;;;;4794181;29;20319;-93
2022/12/20 13:53:26;;;;;;;17.23;16.02;;;13.90;99.90;;;;;;4795692;29;20519;-94
2022/12/20 13:55:54;;;;;;;17.40;16.13;;;13.80;99.90;;;;;;4796058;29;20039;-94
2022/12/20 13:58:36;;;;;;;16.80;15.65;;;13.80;99.90;;;;;;4794113;29;20031;-94
2022/12/20 14:01:10;;;;;;;17.23;15.70;;;13.80;99.90;;;;;;4793979;29;20039;-93
2022/12/20 14:04:03;;;;;;;16.75;15.55;;;13.70;99.90;;;;;;4807803;29;20085;-94
2022/12/20 14:06:30;;;;;;;18.10;16.10;;;13.70;99.90;;;;;;4815010;29;20052;-94
2022/12/20 14:08:57;;;;;;;17.33;16.00;;;13.60;99.90;;;;;;4814993;29;20056;-95
2022/12/20 14:11:26;;;;;;;16.65;15.18;;;13.50;99.90;;;;;;4829945;29;20129;-94
2022/12/20 14:14:02;;;;;;;16.98;15.38;;;13.40;99.90;;;;;;4814914;29;20034;-93
2022/12/20 14:16:32;;;;;;;16.02;14.73;;;13.20;99.90;;;;;;4814670;29;20483;-93
2022/12/20 14:19:05;;;;;;;16.85;15.48;;;13.10;99.90;;;;;;4814810;29;20041;-94
2022/12/20 14:21:39;;;;;;;16.92;15.32;;;13.00;99.90;;;;;;4830138;29;20049;-93
2022/12/20 14:24:19;;;;;;;18.27;16.77;;;12.90;99.90;;;;;;4814736;29;20030;-94
2022/12/20 14:26:50;;;;;;;16.42;15.23;;;12.90;99.90;;;;;;4814723;29;20302;-94
2022/12/20 14:29:21;;;;;;;16.63;15.00;;;12.80;99.90;;;;;;4815270;29;20114;-94
2022/12/20 14:31:49;;;;;;;15.82;14.63;;;12.80;99.90;;;;;;4828627;29;20121;-93
2022/12/20 14:34:29;;;;;;;16.98;15.40;;;12.80;99.90;;;;;;4814670;29;20026;-93
2022/12/20 14:37:26;;;;;;;16.50;15.02;;;12.70;99.90;;;;;;4829392;29;20033;-93
2022/12/20 14:39:58;;;;;;;17.85;16.35;;;12.70;99.90;;;;;;4814758;29;20483;-94
2022/12/20 14:42:35;;;;;;;17.85;14.98;;;12.70;99.90;;;;;;4814861;29;20033;-93
2022/12/20 14:45:27;;;;;;;16.95;15.48;;;12.70;99.90;;;;;;4829403;29;20034;-93
2022/12/20 14:48:05;;;;;;;16.67;14.50;;;12.70;99.90;;;;;;4814714;29;20034;-94
2022/12/20 14:50:39;;;;;;;16.20;14.90;;;12.60;99.90;;;;;;4814565;29;20049;-94
2022/12/20 14:53:27;;;;;;;16.42;14.95;;;12.60;99.90;;;;;;4829374;29;20039;-93
2022/12/20 14:55:55;;;;;;;15.93;14.40;;;12.70;99.90;;;;;;4829339;29;20452;-94
2022/12/20 14:58:32;;;;;;;15.82;14.45;;;12.60;99.90;;;;;;4814519;29;20089;-93
2022/12/20 15:01:15;;;;;;;15.90;14.18;;;12.50;99.90;;;;;;4814660;29;20106;-93
2022/12/20 15:03:58;;;;;;;15.33;13.97;;;12.50;99.90;;;;;;4814589;29;20046;-93
2022/12/20 15:06:40;;;;;;;13.82;12.63;;;12.50;99.90;;;;;;4829617;29;20034;-93
2022/12/20 15:09:07;;;;;;;15.32;13.73;;;12.40;99.90;;;;;;4829056;29;20114;-93
2022/12/20 15:11:36;;;;;;;14.75;13.50;;;12.30;99.90;;;;;;4829477;29;20042;-94
2022/12/20 15:14:21;;;;;;;14.85;13.35;;;12.30;99.90;;;;;;4814683;29;20030;-93
2022/12/20 15:16:49;;;;;;;15.07;13.65;;;12.20;99.90;;;;;;4814845;29;20094;-93
2022/12/20 15:19:15;;;;;;;15.25;13.68;;;12.10;99.90;;;;;;4815027;29;20060;-93
2022/12/20 15:21:44;;;;;;;15.00;13.60;;;12.00;99.90;;;;;;4815234;29;20034;-94
2022/12/20 15:24:26;;;;;;;14.63;13.32;;;12.00;99.90;;;;;;4829438;29;20071;-94
2022/12/20 15:26:53;;;;;;;14.65;13.38;;;11.90;99.90;;;;;;4814456;29;20036;-94
2022/12/20 15:29:22;;;;;;;15.10;13.70;;;11.90;99.90;;;;;;4814231;29;20041;-93
2022/12/20 15:31:52;;;;;;;18.70;14.20;;;11.80;99.90;;;;;;4829376;29;20038;-94
2022/12/20 15:34:32;;;;;;;14.57;12.77;;;11.80;99.90;;;;;;4814385;29;20116;-94
2022/12/20 15:37:01;;;;;;;15.60;14.15;;;11.70;99.90;;;;;;4829151;29;20041;-94
2022/12/20 15:39:29;;;;;;;16.02;14.20;;;11.60;99.90;;;;;;4813700;29;20679;-93
2022/12/20 15:42:00;;;;;;;15.25;13.60;;;11.60;99.90;;;;;;4813409;29;20034;-94
2022/12/20 15:44:30;;;;;;;19.90;14.73;;;11.50;99.90;;;;;;4828278;29;20500;-94
2022/12/20 15:46:57;;;;;;;14.77;13.27;;;11.50;99.90;;;;;;4813168;29;20026;-93
2022/12/20 15:49:29;;;;;;;16.77;13.68;;;11.50;99.90;;;;;;4828145;29;20049;-94
2022/12/20 15:51:56;;;;;;;16.20;13.93;;;11.50;99.90;;;;;;4813209;29;20041;-94
2022/12/20 15:54:26;;;;;;;19.73;14.88;;;11.50;99.90;;;;;;4813327;29;20037;-94
2022/12/20 15:56:54;;;;;;;17.35;13.43;;;11.50;99.90;;;;;;4813192;29;20392;-94
2022/12/20 15:59:21;;;;;;;15.73;13.30;;;11.60;99.90;;;;;;4813191;29;20037;-93
2022/12/20 16:01:48;;;;;;;21.33;18.85;;;11.50;99.90;;;;;;4814265;29;20416;-94
2022/12/20 16:04:18;;;;;;;17.52;15.10;;;11.50;99.90;;;;;;4813207;29;20397;-93
2022/12/20 16:06:48;;;;;;;21.23;14.15;;;11.50;99.90;;;;;;4812972;29;20025;-94
2022/12/20 16:09:15;;;;;;;36.13;23.73;;;11.40;99.90;;;;;;4812821;29;20121;-94
2022/12/20 16:11:49;;;;;;;34.70;23.15;;;11.40;99.90;;;;;;4813066;29;20034;-94
2022/12/20 16:14:20;;;;;;;30.08;19.83;;;11.40;99.90;;;;;;4812754;29;20033;-93
2022/12/20 16:16:48;;;;;;;30.85;23.42;;;11.50;99.90;;;;;;4813877;29;20069;-92
2022/12/20 16:19:19;;;;;;;32.55;23.60;;;11.50;99.90;;;;;;4813408;29;20061;-94
2022/12/20 16:21:49;;;;;;;34.92;25.38;;;11.50;99.90;;;;;;4816051;29;20041;-94
2022/12/20 16:24:19;;;;;;;42.10;25.83;;;11.50;99.90;;;;;;4812881;29;20049;-93
2022/12/20 16:26:48;;;;;;;32.17;24.95;;;11.60;99.90;;;;;;4827901;29;20030;-93
2022/12/20 16:29:15;;;;;;;29.95;23.00;;;11.60;99.90;;;;;;4812726;29;20560;-95
2022/12/20 16:31:42;;;;;;;31.05;23.38;;;11.60;99.90;;;;;;4812708;29;20038;-94
2022/12/20 16:34:13;;;;;;;29.75;23.17;;;11.50;99.90;;;;;;4813475;29;20143;-95
2022/12/20 16:36:41;;;;;;;31.92;24.17;;;11.60;99.90;;;;;;4813196;29;20040;-94
2022/12/20 16:39:21;;;;;;;30.90;23.02;;;11.50;99.90;;;;;;4812741;29;20082;-93
2022/12/20 16:41:48;;;;;;;32.47;25.23;;;11.40;99.90;;;;;;4828082;29;20038;-95
2022/12/20 16:44:16;;;;;;;36.30;25.58;;;11.30;99.90;;;;;;4812624;29;20030;-93
2022/12/20 16:46:44;;;;;;;29.52;24.73;;;11.20;99.90;;;;;;4812785;29;20159;-93
2022/12/20 16:49:12;;;;;;;25.35;21.95;;;11.10;99.90;;;;;;4828077;29;20038;-94
2022/12/20 16:51:44;;;;;;;24.73;21.50;;;11.10;99.90;;;;;;4814889;29;20040;-94
2022/12/20 16:54:21;;;;;;;32.03;22.58;;;11.00;99.90;;;;;;4819726;29;20030;-94
2022/12/20 16:56:53;;;;;;;31.27;20.70;;;10.90;99.90;;;;;;4817783;29;20049;-95
2022/12/20 16:59:38;;;;;;;28.85;22.15;;;10.80;99.90;;;;;;4819909;29;20109;-95
2022/12/20 17:02:29;;;;;;;32.80;22.58;;;10.80;99.90;;;;;;4817117;29;20068;-94
2022/12/20 17:04:57;;;;;;;35.90;24.58;;;10.70;99.90;;;;;;4817903;29;20499;-94
2022/12/20 17:07:24;;;;;;;39.33;27.67;;;10.70;99.90;;;;;;4815108;29;20034;-95
2022/12/20 17:09:52;;;;;;;40.40;26.00;;;10.60;99.90;;;;;;4812992;29;20038;-94
2022/12/20 17:12:21;;;;;;;47.78;30.20;;;10.70;99.90;;;;;;4813422;29;20102;-93
2022/12/20 17:14:48;;;;;;;38.65;26.23;;;10.70;99.90;;;;;;4832748;29;20030;-94
2022/12/20 17:17:18;;;;;;;35.08;25.77;;;10.70;99.90;;;;;;4817237;29;20120;-94
2022/12/20 17:19:45;;;;;;;36.55;26.48;;;10.70;99.90;;;;;;4829851;29;20079;-93
2022/12/20 17:22:17;;;;;;;43.17;27.95;;;10.70;99.90;;;;;;4814582;29;20491;-94
2022/12/20 17:24:44;;;;;;;45.75;29.25;;;10.70;99.90;;;;;;4813653;29;20038;-93
2022/12/20 17:27:11;;;;;;;46.92;31.17;;;10.60;99.90;;;;;;4812816;29;20038;-94
2022/12/20 17:29:39;;;;;;;51.97;35.00;;;10.60;99.90;;;;;;4817051;29;20056;-94
2022/12/20 17:32:23;;;;;;;52.33;33.33;;;10.60;99.90;;;;;;4827799;29;20022;-95
2022/12/20 17:34:51;;;;;;;50.28;34.40;;;10.60;99.90;;;;;;4829122;29;20038;-93
2022/12/20 17:37:24;;;;;;;53.35;32.40;;;10.50;99.90;;;;;;4813442;29;20079;-94
2022/12/20 17:39:51;;;;;;;62.65;33.83;;;10.50;99.90;;;;;;4830287;29;20042;-94
2022/12/20 17:42:21;;;;;;;49.10;32.70;;;10.50;99.90;;;;;;4812353;29;20556;-93
2022/12/20 17:44:50;;;;;;;46.90;31.85;;;10.50;99.90;;;;;;4814406;29;20030;-93
2022/12/20 17:47:17;;;;;;;44.58;30.55;;;10.40;99.90;;;;;;4814379;29;20025;-95
2022/12/20 17:49:44;;;;;;;50.70;32.92;;;10.50;99.90;;;;;;4819351;29;20030;-94
2022/12/20 17:52:14;;;;;;;50.97;32.90;;;10.50;99.90;;;;;;4828238;29;20038;-94
2022/12/20 17:54:42;;;;;;;50.70;32.58;;;10.50;99.90;;;;;;4812267;29;20034;-94
2022/12/20 17:57:15;;;;;;;50.28;30.08;;;10.60;99.90;;;;;;4810070;29;20062;-94
2022/12/20 17:59:42;;;;;;;55.30;32.97;;;10.60;99.90;;;;;;4827942;29;20026;-94
2022/12/20 18:02:27;;;;;;;50.75;31.40;;;10.60;99.90;;;;;;4814167;29;20098;-93
2022/12/20 18:04:54;;;;;;;;;;;10.60;99.90;;;;;;4828733;29;20042;-94
2022/12/20 18:07:21;;;;;;;47.13;31.05;;;10.60;99.90;;;;;;4814997;29;19925;-94
2022/12/20 18:09:48;;;;;;;49.55;31.70;;;10.60;99.90;;;;;;4818223;29;20098;-94
2022/12/20 18:12:20;;;;;;;51.30;33.47;;;10.70;99.90;;;;;;4826236;29;20026;-94
2022/12/20 18:14:48;;;;;;;40.83;27.75;;;10.70;99.90;;;;;;4815347;29;20041;-93
2022/12/20 18:17:16;;;;;;;48.28;31.15;;;10.80;99.90;;;;;;4817207;29;20030;-94
2022/12/20 18:19:44;;;;;;;50.38;28.83;;;10.80;99.90;;;;;;4815397;29;20030;-93
2022/12/20 18:22:12;;;;;;;60.75;34.22;;;10.80;99.90;;;;;;4815884;29;20033;-94
2022/12/20 18:24:39;;;;;;;52.10;34.15;;;10.70;99.90;;;;;;4831324;29;20044;-94
2022/12/20 18:27:06;;;;;;;53.75;33.28;;;10.70;99.90;;;;;;4815474;29;20030;-93
2022/12/20 18:29:32;;;;;;;61.40;33.65;;;10.60;99.90;;;;;;4831064;29;20042;-93
2022/12/20 18:31:59;;;;;;;48.83;31.45;;;10.60;99.90;;;;;;4817699;29;20034;-94
2022/12/20 18:34:32;;;;;;;49.55;32.67;;;10.50;99.90;;;;;;4831867;29;20111;-93
2022/12/20 18:37:00;;;;;;;46.25;30.83;;;10.40;99.90;;;;;;4816243;29;20042;-95
2022/12/20 18:39:27;;;;;;;47.13;31.25;;;10.40;99.90;;;;;;4817737;29;20030;-94
2022/12/20 18:41:56;;;;;;;55.95;33.45;;;10.30;99.90;;;;;;4817170;29;20034;-95
2022/12/20 18:44:23;;;;;;;44.03;30.08;;;10.20;99.90;;;;;;4830985;29;20030;-94
2022/12/20 18:46:49;;;;;;;43.72;30.88;;;10.20;99.90;;;;;;4812952;29;20029;-94
2022/12/20 18:49:16;;;;;;;49.55;31.50;;;10.10;99.90;;;;;;4815546;29;20045;-93
2022/12/20 18:51:43;;;;;;;49.03;29.40;;;10.10;99.90;;;;;;4818415;29;20112;-94
2022/12/20 18:54:13;;;;;;;47.03;29.88;;;10.10;99.90;;;;;;4819451;29;20063;-94
2022/12/20 18:56:43;;;;;;;44.55;29.15;;;10.10;99.90;;;;;;4818760;29;20038;-95
2022/12/20 18:59:10;;;;;;;41.40;27.25;;;10.10;99.90;;;;;;4818914;29;20400;-95
2022/12/20 19:01:40;;;;;;;41.53;24.92;;;10.20;99.90;;;;;;4816915;29;20097;-93
2022/12/20 19:04:17;;;;;;;38.05;24.05;;;10.20;99.90;;;;;;4833455;29;20050;-94
2022/12/20 19:06:44;;;;;;;43.70;26.10;;;10.20;99.90;;;;;;4824670;29;20093;-94
2022/12/20 19:09:12;;;;;;;37.08;25.60;;;10.20;99.90;;;;;;4816079;29;20045;-93
2022/12/20 19:11:42;;;;;;;38.30;26.58;;;10.20;99.90;;;;;;4814321;29;20034;-94
2022/12/20 19:14:11;;;;;;;44.42;36.70;;;10.30;99.90;;;;;;4820873;29;20034;-95
2022/12/20 19:16:41;;;;;;;45.28;28.75;;;10.30;99.90;;;;;;4833928;29;20033;-94
2022/12/20 19:19:08;;;;;;;43.05;28.15;;;10.30;99.90;;;;;;4830033;29;20036;-93
2022/12/20 19:21:36;;;;;;;45.95;28.02;;;10.30;99.90;;;;;;4816257;29;20449;-93
2022/12/20 19:24:08;;;;;;;48.00;28.70;;;10.40;99.90;;;;;;4818704;29;20098;-95
2022/12/20 19:29:13;;;;;;;42.70;28.48;;;10.40;99.90;;;;;;4851301;29;20515;-95
2022/12/20 19:32:21;;;;;;;48.13;29.13;;;10.40;99.90;;;;;;4839219;29;20037;-95
2022/12/20 19:34:51;;;;;;;44.45;28.95;;;10.40;99.90;;;;;;4829602;24;20064;-95
2022/12/20 19:37:31;;;;;;;46.63;28.00;;;10.40;99.90;;;;;;4802144;29;20035;-95
2022/12/20 19:39:58;;;;;;;50.00;31.42;;;10.40;99.90;;;;;;4784945;29;20035;-94
2022/12/20 19:42:35;;;;;;;51.20;30.63;;;10.50;99.90;;;;;;4785534;29;20027;-95
2022/12/20 19:45:07;;;;;;;42.55;29.55;;;10.50;99.90;;;;;;4797812;29;20049;-93